createdAt,value
2022-12-22T00:01:05.050Z,9.63
2022-12-22T00:06:28.111Z,8.07
2022-12-22T00:11:49.649Z,8.63
2022-12-22T00:17:10.181Z,9.77
2022-12-22T00:22:32.995Z,8.30
2022-12-22T00:27:54.702Z,9.40
2022-12-22T00:33:15.249Z,11.35
2022-12-22T00:38:38.335Z,10.43
2022-12-22T00:44:00.114Z,11.43
2022-12-22T00:49:20.791Z,9.60
2022-12-22T00:54:41.517Z,8.15
2022-12-22T01:00:03.465Z,9.30
2022-12-22T01:05:24.492Z,9.13
2022-12-22T01:10:46.294Z,10.70
2022-12-22T01:16:07.932Z,7.75
2022-12-22T01:21:29.145Z,9.10
2022-12-22T01:26:49.183Z,12.25
2022-12-22T01:32:10.747Z,11.32
2022-12-22T01:37:31.149Z,10.23
2022-12-22T01:42:53.658Z,10.20
2022-12-22T01:48:15.466Z,10.80
2022-12-22T01:53:39.379Z,9.87
2022-12-22T01:59:03.278Z,11.50
2022-12-22T02:04:25.342Z,8.02
2022-12-22T02:09:55.844Z,15.03
2022-12-22T02:15:21.955Z,7.50
2022-12-22T02:20:55.078Z,8.05
2022-12-22T02:26:21.094Z,8.50
2022-12-22T02:31:43.721Z,7.55
2022-12-22T02:37:13.189Z,7.65
2022-12-22T02:42:41.628Z,7.60
2022-12-22T02:48:08.865Z,8.52
2022-12-22T02:53:32.210Z,8.65
2022-12-22T02:58:53.148Z,9.05
2022-12-22T03:04:14.854Z,7.82
2022-12-22T03:09:35.260Z,13.32
2022-12-22T03:14:55.616Z,12.15
2022-12-22T03:20:17.270Z,10.55
2022-12-22T03:25:37.761Z,12.13
2022-12-22T03:30:40.876Z,10.55
2022-12-22T03:35:46.365Z,8.20
2022-12-22T03:40:49.129Z,7.18
2022-12-22T03:46:12.965Z,7.68
2022-12-22T03:51:17.163Z,9.07
2022-12-22T03:56:19.932Z,10.27
2022-12-22T04:01:22.999Z,10.27
2022-12-22T04:06:27.201Z,7.80
2022-12-22T04:11:47.543Z,10.05
2022-12-22T04:16:50.498Z,6.82
2022-12-22T04:21:55.386Z,6.50
2022-12-22T04:26:58.188Z,9.35
2022-12-22T04:32:01.023Z,6.70
2022-12-22T04:37:14.820Z,6.88
2022-12-22T04:42:20.189Z,9.63
2022-12-22T04:47:23.009Z,6.80
2022-12-22T04:52:27.647Z,5.30
2022-12-22T04:57:31.135Z,7.50
2022-12-22T05:02:36.202Z,9.30
2022-12-22T05:07:40.409Z,13.88
2022-12-22T05:12:58.092Z,7.47
2022-12-22T05:18:01.569Z,8.27
2022-12-22T05:23:05.662Z,11.15
2022-12-22T05:28:08.405Z,13.73
2022-12-22T05:33:11.138Z,14.13
2022-12-22T05:38:15.244Z,20.67
2022-12-22T05:43:17.994Z,26.25
2022-12-22T05:48:27.413Z,28.35
2022-12-22T05:53:33.677Z,26.42
2022-12-22T05:58:39.399Z,31.33
2022-12-22T06:03:42.263Z,34.55
2022-12-22T06:08:46.495Z,38.95
2022-12-22T06:13:49.212Z,37.92
2022-12-22T06:18:51.907Z,36.00
2022-12-22T06:23:56.179Z,33.60
2022-12-22T06:28:58.844Z,35.25
2022-12-22T06:39:05.766Z,31.10
2022-12-22T06:44:08.514Z,40.15
2022-12-22T06:49:11.212Z,40.13
2022-12-22T06:54:19.471Z,33.20
2022-12-22T06:59:25.009Z,33.92
2022-12-22T07:04:29.688Z,35.03
2022-12-22T07:09:33.850Z,35.92
2022-12-22T07:14:36.593Z,44.10
2022-12-22T07:19:39.341Z,34.42
2022-12-22T07:24:43.486Z,41.53
2022-12-22T07:29:46.227Z,66.20
2022-12-22T07:34:48.984Z,56.55
2022-12-22T07:39:53.069Z,45.75
2022-12-22T07:44:55.835Z,38.15
2022-12-22T07:50:15.944Z,49.30
2022-12-22T07:55:20.536Z,45.75
2022-12-22T08:00:24.551Z,42.55
2022-12-22T08:05:27.302Z,46.17
2022-12-22T08:10:32.776Z,16.88
2022-12-22T08:15:35.567Z,28.02
2022-12-22T08:20:38.409Z,15.52
2022-12-22T08:25:42.613Z,15.70
2022-12-22T08:30:46.347Z,12.35
2022-12-22T08:35:51.875Z,11.32
2022-12-22T08:40:55.993Z,41.97
2022-12-22T08:45:58.703Z,13.43
2022-12-22T08:51:01.461Z,16.38
2022-12-22T08:56:06.064Z,16.58
2022-12-22T09:01:08.882Z,18.52
2022-12-22T09:06:11.647Z,46.67
2022-12-22T09:11:16.967Z,25.45
2022-12-22T09:16:20.938Z,28.55
2022-12-22T09:21:24.739Z,21.90
2022-12-22T09:26:30.211Z,26.50
2022-12-22T09:31:34.157Z,21.30
2022-12-22T09:36:37.096Z,25.02
2022-12-22T09:41:47.131Z,39.80
2022-12-22T09:46:50.812Z,20.58
2022-12-22T09:51:57.166Z,23.30
2022-12-22T09:57:02.524Z,20.42
2022-12-22T10:02:17.364Z,24.83
2022-12-22T10:07:27.657Z,22.15
2022-12-22T10:12:31.843Z,23.25
2022-12-22T10:17:35.804Z,30.63
2022-12-22T10:22:50.709Z,31.02
2022-12-22T10:27:56.089Z,28.90
2022-12-22T10:33:07.933Z,24.45
2022-12-22T10:38:28.124Z,26.40
2022-12-22T10:43:32.986Z,25.67
2022-12-22T10:48:37.910Z,24.63
2022-12-22T10:53:46.264Z,23.33
2022-12-22T10:58:50.429Z,20.90
2022-12-22T11:03:53.314Z,18.33
2022-12-22T11:09:23.706Z,19.88
2022-12-22T11:14:31.917Z,25.48
2022-12-22T11:19:46.795Z,21.92
2022-12-22T11:25:03.677Z,20.13
2022-12-22T11:30:11.165Z,20.50
2022-12-22T11:35:20.723Z,19.88
2022-12-22T11:40:33.938Z,23.85
2022-12-22T11:45:53.099Z,18.48
2022-12-22T11:51:08.953Z,22.98
2022-12-22T11:56:23.590Z,20.58
2022-12-22T12:01:43.697Z,19.73
2022-12-22T12:07:04.926Z,20.08
2022-12-22T12:12:17.999Z,19.77
2022-12-22T12:17:35.703Z,18.95
2022-12-22T12:22:49.682Z,18.33
2022-12-22T12:28:09.015Z,17.15
2022-12-22T12:33:18.137Z,18.58
2022-12-22T12:39:05.581Z,17.55
2022-12-22T12:43:54.468Z,20.75
2022-12-22T12:48:57.296Z,20.27
2022-12-22T12:54:42.948Z,20.27
2022-12-22T12:59:51.565Z,19.92
2022-12-22T13:05:33.324Z,19.40
2022-12-22T13:10:38.289Z,22.80
2022-12-22T13:15:44.936Z,22.58
2022-12-22T13:21:12.226Z,21.85
2022-12-22T13:26:22.701Z,19.83
2022-12-22T13:31:34.407Z,18.60
2022-12-22T13:36:38.119Z,15.65
2022-12-22T13:41:42.896Z,17.05
2022-12-22T13:46:47.983Z,14.82
2022-12-22T13:51:50.847Z,12.32
2022-12-22T13:56:56.688Z,15.43
2022-12-22T14:02:03.111Z,15.73
2022-12-22T14:07:11.945Z,15.27
2022-12-22T14:12:18.059Z,15.68
2022-12-22T14:17:24.887Z,13.70
2022-12-22T14:22:30.218Z,16.20
2022-12-22T14:27:36.995Z,16.15
2022-12-22T14:32:42.703Z,13.65
2022-12-22T14:37:45.473Z,12.15
2022-12-22T14:42:48.338Z,16.45
2022-12-22T14:47:54.367Z,15.77
2022-12-22T14:52:59.323Z,19.27
2022-12-22T14:58:06.559Z,23.10
2022-12-22T15:03:31.972Z,19.10
2022-12-22T15:08:39.132Z,18.58
2022-12-22T15:13:42.301Z,21.70
2022-12-22T15:18:47.343Z,19.13
2022-12-22T15:23:50.492Z,25.45
2022-12-22T15:28:53.304Z,20.55
2022-12-22T15:34:00.446Z,24.42
2022-12-22T15:39:03.183Z,20.17
2022-12-22T15:44:06.011Z,25.35
2022-12-22T15:49:16.244Z,20.98
2022-12-22T15:54:19.826Z,28.40
2022-12-22T15:59:25.893Z,25.27
2022-12-22T16:04:30.404Z,23.40
2022-12-22T16:09:39.980Z,20.77
2022-12-22T16:14:50.014Z,21.65
2022-12-22T16:19:54.882Z,21.40
2022-12-22T16:24:57.941Z,21.83
2022-12-22T16:30:00.778Z,26.73
2022-12-22T16:35:16.272Z,30.58
2022-12-22T16:40:20.090Z,27.85
2022-12-22T16:45:25.183Z,40.15
2022-12-22T16:50:33.286Z,36.70
2022-12-22T16:55:36.054Z,29.15
2022-12-22T17:00:40.601Z,30.02
2022-12-22T17:05:49.069Z,32.22
2022-12-22T17:10:52.803Z,35.88
2022-12-22T17:15:55.610Z,37.08
2022-12-22T17:21:01.230Z,38.72
2022-12-22T17:26:08.679Z,31.60
2022-12-22T17:31:16.494Z,29.95
2022-12-22T17:36:29.493Z,33.47
2022-12-22T17:41:32.480Z,36.20
2022-12-22T17:46:35.327Z,31.25
2022-12-22T17:51:40.769Z,30.95
2022-12-22T17:56:43.561Z,27.02
2022-12-22T18:01:46.390Z,31.45
2022-12-22T18:06:50.560Z,31.80
2022-12-22T18:11:54.618Z,29.83
2022-12-22T18:16:57.563Z,35.10
2022-12-22T18:22:01.598Z,28.38
2022-12-22T18:27:04.557Z,31.75
2022-12-22T18:32:09.295Z,30.65
2022-12-22T18:37:17.542Z,28.52
2022-12-22T18:42:22.690Z,33.65
2022-12-22T18:47:25.396Z,27.75
2022-12-22T18:57:33.615Z,28.60
2022-12-22T19:07:40.539Z,35.17
2022-12-22T19:12:43.520Z,39.95
2022-12-22T19:17:46.420Z,32.83
2022-12-22T19:22:51.131Z,34.70
2022-12-22T19:27:57.423Z,41.33
2022-12-22T19:33:03.046Z,36.22
2022-12-22T19:38:19.786Z,35.10
2022-12-22T19:43:22.656Z,38.47
2022-12-22T19:48:27.682Z,37.60
2022-12-22T19:53:31.782Z,42.03
2022-12-22T19:58:40.630Z,38.72
2022-12-22T20:03:43.446Z,54.05
2022-12-22T20:08:47.625Z,54.13
2022-12-22T20:13:50.482Z,44.60
2022-12-22T20:18:53.333Z,44.20
2022-12-22T20:24:01.048Z,36.88
2022-12-22T20:29:03.827Z,44.95
2022-12-22T20:34:06.816Z,46.97
2022-12-22T20:39:16.377Z,39.38
2022-12-22T20:44:19.180Z,43.75
2022-12-22T20:49:21.943Z,43.03
2022-12-22T20:54:26.064Z,40.88
2022-12-22T20:59:29.177Z,34.70
2022-12-22T21:04:32.443Z,30.90
2022-12-22T21:09:36.815Z,24.75
2022-12-22T21:14:39.759Z,20.42
2022-12-22T21:19:42.526Z,17.33
2022-12-22T21:24:46.680Z,19.50
2022-12-22T21:29:49.437Z,14.60
2022-12-22T21:34:52.232Z,16.17
2022-12-22T21:39:56.393Z,14.57
2022-12-22T21:44:59.516Z,19.00
2022-12-22T21:50:02.300Z,13.50
2022-12-22T21:55:07.336Z,10.48
2022-12-22T22:00:13.623Z,9.63
2022-12-22T22:05:24.155Z,10.10
2022-12-22T22:10:30.454Z,10.27
2022-12-22T22:15:33.703Z,13.57
2022-12-22T22:20:36.552Z,10.57
2022-12-22T22:25:40.921Z,9.13
2022-12-22T22:30:43.808Z,12.25
2022-12-22T22:35:46.758Z,13.02
2022-12-22T22:40:51.254Z,12.55
2022-12-22T22:45:54.025Z,7.47
2022-12-22T22:50:56.818Z,7.43
2022-12-22T22:56:03.688Z,6.15
2022-12-22T23:01:07.711Z,9.32
2022-12-22T23:06:13.652Z,6.85
2022-12-22T23:11:18.155Z,9.38
2022-12-22T23:16:21.912Z,10.80
2022-12-22T23:21:24.925Z,8.85
2022-12-22T23:26:29.139Z,11.05
2022-12-22T23:31:32.453Z,8.10
2022-12-22T23:36:35.441Z,5.78
2022-12-22T23:41:39.667Z,9.77
2022-12-22T23:46:42.486Z,11.18
2022-12-22T23:51:45.354Z,8.60
2022-12-22T23:56:49.531Z,12.48
